sensor_id;sensor_type;location;lat;lon;timestamp;pressure;altitude;pressure_sealevel;temperature;humidity
43115;BME280;28727;50.068;14.452;2023-04-30T00:00:01;99510.56;;;11.95;66.36
43115;BME280;28727;50.068;14.452;2023-04-30T00:02:40;99507.91;;;11.95;66.58
43115;BME280;28727;50.068;14.452;2023-04-30T00:05:17;99512.38;;;11.94;66.37
43115;BME280;28727;50.068;14.452;2023-04-30T00:07:49;99516.47;;;11.97;66.19
43115;BME280;28727;50.068;14.452;2023-04-30T00:10:21;99512.84;;;11.98;65.93
43115;BME280;28727;50.068;14.452;2023-04-30T00:12:53;99512.00;;;11.97;66.29
43115;BME280;28727;50.068;14.452;2023-04-30T00:15:24;99513.38;;;11.93;66.19
43115;BME280;28727;50.068;14.452;2023-04-30T00:17:56;99513.38;;;11.93;66.11
43115;BME280;28727;50.068;14.452;2023-04-30T00:20:28;99516.00;;;11.93;66.27
43115;BME280;28727;50.068;14.452;2023-04-30T00:23:03;99511.88;;;11.90;66.11
43115;BME280;28727;50.068;14.452;2023-04-30T00:25:35;99516.34;;;11.90;66.20
43115;BME280;28727;50.068;14.452;2023-04-30T00:28:07;99510.25;;;11.89;66.16
43115;BME280;28727;50.068;14.452;2023-04-30T00:30:39;99521.63;;;11.90;66.18
43115;BME280;28727;50.068;14.452;2023-04-30T00:33:11;99511.41;;;11.87;66.00
43115;BME280;28727;50.068;14.452;2023-04-30T00:35:43;99508.59;;;11.88;65.95
43115;BME280;28727;50.068;14.452;2023-04-30T00:38:15;99515.34;;;11.91;65.91
43115;BME280;28727;50.068;14.452;2023-04-30T00:40:48;99511.72;;;11.92;66.10
43115;BME280;28727;50.068;14.452;2023-04-30T00:43:20;99514.34;;;11.92;65.92
43115;BME280;28727;50.068;14.452;2023-04-30T00:45:53;99517.84;;;11.93;66.23
43115;BME280;28727;50.068;14.452;2023-04-30T00:48:27;99517.16;;;11.90;65.89
43115;BME280;28727;50.068;14.452;2023-04-30T00:51:01;99518.53;;;11.86;66.38
43115;BME280;28727;50.068;14.452;2023-04-30T00:53:35;99523.66;;;11.88;66.21
43115;BME280;28727;50.068;14.452;2023-04-30T00:56:12;99529.56;;;11.90;66.49
43115;BME280;28727;50.068;14.452;2023-04-30T00:58:48;99521.31;;;11.93;66.12
43115;BME280;28727;50.068;14.452;2023-04-30T01:01:25;99525.78;;;11.93;66.25
43115;BME280;28727;50.068;14.452;2023-04-30T01:04:00;99523.94;;;11.93;66.59
43115;BME280;28727;50.068;14.452;2023-04-30T01:06:32;99530.75;;;11.96;66.33
43115;BME280;28727;50.068;14.452;2023-04-30T01:09:04;99529.53;;;11.98;66.00
43115;BME280;28727;50.068;14.452;2023-04-30T01:11:48;99531.19;;;11.99;66.18
43115;BME280;28727;50.068;14.452;2023-04-30T01:14:29;99530.00;;;12.02;65.75
43115;BME280;28727;50.068;14.452;2023-04-30T01:17:07;99529.38;;;12.00;65.63
43115;BME280;28727;50.068;14.452;2023-04-30T01:19:45;99537.03;;;11.95;65.97
43115;BME280;28727;50.068;14.452;2023-04-30T01:28:14;99542.66;;;11.92;65.74
43115;BME280;28727;50.068;14.452;2023-04-30T01:30:48;99543.63;;;11.90;65.98
43115;BME280;28727;50.068;14.452;2023-04-30T01:33:24;99539.53;;;11.88;66.21
43115;BME280;28727;50.068;14.452;2023-04-30T01:50:48;99552.25;;;11.93;66.43
43115;BME280;28727;50.068;14.452;2023-04-30T01:53:24;99542.66;;;11.92;66.39
43115;BME280;28727;50.068;14.452;2023-04-30T01:56:03;99542.31;;;11.95;66.43
43115;BME280;28727;50.068;14.452;2023-04-30T01:58:37;99550.56;;;12.00;66.19
43115;BME280;28727;50.068;14.452;2023-04-30T02:01:30;99551.56;;;11.99;66.07
43115;BME280;28727;50.068;14.452;2023-04-30T02:04:05;99556.03;;;11.98;65.83
43115;BME280;28727;50.068;14.452;2023-04-30T02:06:38;99557.00;;;11.97;66.02
43115;BME280;28727;50.068;14.452;2023-04-30T02:09:12;99560.03;;;11.94;66.17
43115;BME280;28727;50.068;14.452;2023-04-30T02:11:46;99561.84;;;11.94;65.90
43115;BME280;28727;50.068;14.452;2023-04-30T02:14:18;99562.00;;;11.92;65.65
43115;BME280;28727;50.068;14.452;2023-04-30T02:16:50;99564.81;;;11.90;66.00
43115;BME280;28727;50.068;14.452;2023-04-30T02:19:22;99572.13;;;11.88;66.05
43115;BME280;28727;50.068;14.452;2023-04-30T02:21:54;99573.44;;;11.84;66.00
43115;BME280;28727;50.068;14.452;2023-04-30T02:24:27;99582.22;;;11.85;66.02
43115;BME280;28727;50.068;14.452;2023-04-30T02:26:59;99588.16;;;11.87;66.02
43115;BME280;28727;50.068;14.452;2023-04-30T02:29:31;99581.75;;;11.81;66.27
43115;BME280;28727;50.068;14.452;2023-04-30T02:32:03;99587.03;;;11.81;66.17
43115;BME280;28727;50.068;14.452;2023-04-30T02:34:35;99593.00;;;11.83;65.97
43115;BME280;28727;50.068;14.452;2023-04-30T02:37:07;99590.84;;;11.79;66.00
43115;BME280;28727;50.068;14.452;2023-04-30T02:39:40;99592.03;;;11.76;66.13
43115;BME280;28727;50.068;14.452;2023-04-30T02:42:12;99583.09;;;11.77;66.24
43115;BME280;28727;50.068;14.452;2023-04-30T02:44:44;99591.66;;;11.79;66.13
43115;BME280;28727;50.068;14.452;2023-04-30T02:47:23;99593.47;;;11.79;65.86
43115;BME280;28727;50.068;14.452;2023-04-30T02:49:55;99592.66;;;11.78;66.07
43115;BME280;28727;50.068;14.452;2023-04-30T02:52:27;99591.84;;;11.78;65.86
43115;BME280;28727;50.068;14.452;2023-04-30T02:55:02;99593.84;;;11.76;66.30
43115;BME280;28727;50.068;14.452;2023-04-30T02:57:34;99597.16;;;11.78;65.94
43115;BME280;28727;50.068;14.452;2023-04-30T03:00:10;99599.78;;;11.78;65.95
43115;BME280;28727;50.068;14.452;2023-04-30T03:02:42;99600.13;;;11.75;66.19
43115;BME280;28727;50.068;14.452;2023-04-30T03:05:15;99599.13;;;11.76;65.90
43115;BME280;28727;50.068;14.452;2023-04-30T03:07:47;99609.56;;;11.77;65.81
43115;BME280;28727;50.068;14.452;2023-04-30T03:10:18;99618.66;;;11.75;65.82
43115;BME280;28727;50.068;14.452;2023-04-30T03:12:50;99618.31;;;11.70;66.09
43115;BME280;28727;50.068;14.452;2023-04-30T03:15:22;99613.16;;;11.68;66.26
43115;BME280;28727;50.068;14.452;2023-04-30T03:17:55;99621.94;;;11.69;65.89
43115;BME280;28727;50.068;14.452;2023-04-30T03:20:27;99617.47;;;11.69;65.90
43115;BME280;28727;50.068;14.452;2023-04-30T03:22:59;99618.50;;;11.60;66.21
43115;BME280;28727;50.068;14.452;2023-04-30T03:25:31;99620.63;;;11.57;66.21
43115;BME280;28727;50.068;14.452;2023-04-30T03:28:03;99621.31;;;11.59;66.12
43115;BME280;28727;50.068;14.452;2023-04-30T03:30:35;99625.59;;;11.60;66.26
43115;BME280;28727;50.068;14.452;2023-04-30T03:33:06;99633.88;;;11.57;66.25
43115;BME280;28727;50.068;14.452;2023-04-30T03:35:38;99633.69;;;11.58;66.17
43115;BME280;28727;50.068;14.452;2023-04-30T03:38:11;99635.34;;;11.59;66.15
43115;BME280;28727;50.068;14.452;2023-04-30T03:40:43;99641.47;;;11.60;66.10
43115;BME280;28727;50.068;14.452;2023-04-30T03:43:15;99639.66;;;11.60;66.05
43115;BME280;28727;50.068;14.452;2023-04-30T03:45:47;99638.31;;;11.64;65.96
43115;BME280;28727;50.068;14.452;2023-04-30T03:48:21;99645.28;;;11.65;65.81
43115;BME280;28727;50.068;14.452;2023-04-30T03:50:53;99640.13;;;11.72;65.59
43115;BME280;28727;50.068;14.452;2023-04-30T03:53:25;99644.94;;;11.76;65.45
43115;BME280;28727;50.068;14.452;2023-04-30T03:55:58;99647.59;;;11.76;65.03
43115;BME280;28727;50.068;14.452;2023-04-30T03:58:30;99646.94;;;11.74;65.14
43115;BME280;28727;50.068;14.452;2023-04-30T04:01:02;99655.69;;;11.75;65.01
43115;BME280;28727;50.068;14.452;2023-04-30T04:03:34;99655.53;;;11.76;65.38
43115;BME280;28727;50.068;14.452;2023-04-30T04:06:09;99645.59;;;11.78;65.07
43115;BME280;28727;50.068;14.452;2023-04-30T04:08:42;99652.06;;;11.76;65.25
43115;BME280;28727;50.068;14.452;2023-04-30T04:11:16;99654.34;;;11.71;64.80
43115;BME280;28727;50.068;14.452;2023-04-30T04:13:48;99655.53;;;11.60;65.15
43115;BME280;28727;50.068;14.452;2023-04-30T04:16:20;99658.84;;;11.54;65.54
43115;BME280;28727;50.068;14.452;2023-04-30T04:18:53;99659.00;;;11.53;66.03
43115;BME280;28727;50.068;14.452;2023-04-30T04:21:25;99659.84;;;11.53;65.77
43115;BME280;28727;50.068;14.452;2023-04-30T04:23:57;99655.69;;;11.50;65.48
43115;BME280;28727;50.068;14.452;2023-04-30T04:26:30;99671.91;;;11.47;65.50
43115;BME280;28727;50.068;14.452;2023-04-30T04:29:05;99681.31;;;11.50;65.36
43115;BME280;28727;50.068;14.452;2023-04-30T04:31:44;99681.50;;;11.40;65.53
43115;BME280;28727;50.068;14.452;2023-04-30T04:34:16;99681.34;;;11.42;65.64
43115;BME280;28727;50.068;14.452;2023-04-30T04:36:49;99679.53;;;11.42;65.44
43115;BME280;28727;50.068;14.452;2023-04-30T04:39:22;99689.44;;;11.40;65.36
43115;BME280;28727;50.068;14.452;2023-04-30T04:41:53;99687.78;;;11.39;65.32
43115;BME280;28727;50.068;14.452;2023-04-30T04:44:29;99696.06;;;11.36;65.43
43115;BME280;28727;50.068;14.452;2023-04-30T04:47:00;99688.94;;;11.37;65.71
43115;BME280;28727;50.068;14.452;2023-04-30T04:49:36;99690.91;;;11.43;65.77
43115;BME280;28727;50.068;14.452;2023-04-30T04:52:09;99692.25;;;11.47;65.36
43115;BME280;28727;50.068;14.452;2023-04-30T04:54:42;99694.91;;;11.47;65.33
43115;BME280;28727;50.068;14.452;2023-04-30T04:57:14;99702.69;;;11.48;65.36
43115;BME280;28727;50.068;14.452;2023-04-30T04:59:46;99701.34;;;11.53;65.27
43115;BME280;28727;50.068;14.452;2023-04-30T05:02:18;99704.81;;;11.53;65.26
43115;BME280;28727;50.068;14.452;2023-04-30T05:04:54;99704.63;;;11.55;65.20
43115;BME280;28727;50.068;14.452;2023-04-30T05:07:26;99701.00;;;11.56;65.07
43115;BME280;28727;50.068;14.452;2023-04-30T05:10:01;99710.91;;;11.70;64.91
43115;BME280;28727;50.068;14.452;2023-04-30T05:12:34;99711.59;;;11.80;64.61
43115;BME280;28727;50.068;14.452;2023-04-30T05:15:09;99716.22;;;11.94;64.29
43115;BME280;28727;50.068;14.452;2023-04-30T05:17:41;99711.84;;;12.17;63.41
43115;BME280;28727;50.068;14.452;2023-04-30T05:20:12;99723.09;;;12.19;62.75
43115;BME280;28727;50.068;14.452;2023-04-30T05:22:44;99724.88;;;12.27;62.51
43115;BME280;28727;50.068;14.452;2023-04-30T05:25:19;99724.41;;;12.23;62.44
43115;BME280;28727;50.068;14.452;2023-04-30T05:27:51;99731.38;;;12.24;62.40
43115;BME280;28727;50.068;14.452;2023-04-30T05:30:23;99728.34;;;12.36;62.44
43115;BME280;28727;50.068;14.452;2023-04-30T05:32:56;99728.91;;;12.62;61.66
43115;BME280;28727;50.068;14.452;2023-04-30T05:35:28;99733.03;;;12.64;61.30
43115;BME280;28727;50.068;14.452;2023-04-30T05:38:01;99739.88;;;12.90;60.61
43115;BME280;28727;50.068;14.452;2023-04-30T05:40:33;99741.91;;;13.10;60.10
43115;BME280;28727;50.068;14.452;2023-04-30T05:43:06;99735.88;;;13.25;59.42
43115;BME280;28727;50.068;14.452;2023-04-30T05:45:38;99741.72;;;13.43;58.96
43115;BME280;28727;50.068;14.452;2023-04-30T05:48:10;99739.50;;;13.69;58.42
43115;BME280;28727;50.068;14.452;2023-04-30T05:50:45;99736.19;;;13.90;57.64
43115;BME280;28727;50.068;14.452;2023-04-30T05:53:16;99731.72;;;14.05;56.96
43115;BME280;28727;50.068;14.452;2023-04-30T05:55:48;99740.13;;;13.94;57.12
43115;BME280;28727;50.068;14.452;2023-04-30T05:58:21;99740.03;;;14.02;56.71
43115;BME280;28727;50.068;14.452;2023-04-30T06:00:53;99741.34;;;14.06;56.41
43115;BME280;28727;50.068;14.452;2023-04-30T06:03:25;99738.56;;;14.00;56.35
43115;BME280;28727;50.068;14.452;2023-04-30T06:05:57;99739.59;;;14.28;56.65
43115;BME280;28727;50.068;14.452;2023-04-30T06:08:29;99737.53;;;14.53;55.30
43115;BME280;28727;50.068;14.452;2023-04-30T06:11:01;99743.19;;;14.64;54.98
43115;BME280;28727;50.068;14.452;2023-04-30T06:13:35;99741.91;;;14.75;54.62
43115;BME280;28727;50.068;14.452;2023-04-30T06:16:07;99749.38;;;14.86;54.77
43115;BME280;28727;50.068;14.452;2023-04-30T06:18:39;99738.75;;;15.22;54.22
43115;BME280;28727;50.068;14.452;2023-04-30T06:21:11;99739.22;;;15.68;53.02
43115;BME280;28727;50.068;14.452;2023-04-30T06:23:43;99745.13;;;15.91;51.64
43115;BME280;28727;50.068;14.452;2023-04-30T06:26:18;99740.69;;;15.98;51.54
43115;BME280;28727;50.068;14.452;2023-04-30T06:28:50;99738.94;;;16.47;50.30
43115;BME280;28727;50.068;14.452;2023-04-30T06:31:22;99736.00;;;16.69;49.04
43115;BME280;28727;50.068;14.452;2023-04-30T06:33:54;99735.09;;;16.56;49.31
43115;BME280;28727;50.068;14.452;2023-04-30T06:36:26;99732.41;;;16.49;49.07
43115;BME280;28727;50.068;14.452;2023-04-30T06:38:58;99728.81;;;16.63;49.35
43115;BME280;28727;50.068;14.452;2023-04-30T06:41:30;99730.94;;;16.88;48.57
43115;BME280;28727;50.068;14.452;2023-04-30T06:44:02;99732.03;;;17.00;48.39
43115;BME280;28727;50.068;14.452;2023-04-30T06:46:34;99727.34;;;17.22;47.62
43115;BME280;28727;50.068;14.452;2023-04-30T06:49:06;99737.63;;;17.25;47.23
43115;BME280;28727;50.068;14.452;2023-04-30T06:51:40;99730.47;;;17.32;47.53
43115;BME280;28727;50.068;14.452;2023-04-30T06:54:12;99737.31;;;17.61;47.34
43115;BME280;28727;50.068;14.452;2023-04-30T06:56:45;99735.06;;;17.77;46.35
43115;BME280;28727;50.068;14.452;2023-04-30T06:59:16;99740.81;;;17.61;46.38
43115;BME280;28727;50.068;14.452;2023-04-30T07:01:54;99739.38;;;17.65;45.90
43115;BME280;28727;50.068;14.452;2023-04-30T07:04:26;99750.88;;;17.92;45.83
43115;BME280;28727;50.068;14.452;2023-04-30T07:06:59;99743.28;;;17.82;45.66
43115;BME280;28727;50.068;14.452;2023-04-30T07:09:35;99747.41;;;17.78;45.15
43115;BME280;28727;50.068;14.452;2023-04-30T07:12:07;99744.09;;;17.76;45.62
43115;BME280;28727;50.068;14.452;2023-04-30T07:14:39;99745.53;;;17.92;45.28
43115;BME280;28727;50.068;14.452;2023-04-30T07:17:11;99745.31;;;18.07;45.01
43115;BME280;28727;50.068;14.452;2023-04-30T07:19:43;99740.56;;;18.09;44.74
43115;BME280;28727;50.068;14.452;2023-04-30T07:22:15;99741.41;;;18.09;44.78
43115;BME280;28727;50.068;14.452;2023-04-30T07:24:47;99747.16;;;18.26;44.73
43115;BME280;28727;50.068;14.452;2023-04-30T07:27:18;99745.25;;;18.46;43.97
43115;BME280;28727;50.068;14.452;2023-04-30T07:29:51;99742.31;;;18.67;43.06
43115;BME280;28727;50.068;14.452;2023-04-30T07:32:23;99741.72;;;18.52;42.91
43115;BME280;28727;50.068;14.452;2023-04-30T07:34:57;99739.47;;;18.56;42.68
43115;BME280;28727;50.068;14.452;2023-04-30T07:37:30;99742.75;;;18.64;43.14
43115;BME280;28727;50.068;14.452;2023-04-30T07:40:06;99735.16;;;18.61;42.92
43115;BME280;28727;50.068;14.452;2023-04-30T07:42:51;99742.88;;;18.83;42.17
43115;BME280;28727;50.068;14.452;2023-04-30T07:45:22;99746.41;;;18.76;42.27
43115;BME280;28727;50.068;14.452;2023-04-30T07:47:54;99736.38;;;19.03;41.63
43115;BME280;28727;50.068;14.452;2023-04-30T07:50:26;99744.84;;;19.07;41.14
43115;BME280;28727;50.068;14.452;2023-04-30T07:53:00;99749.06;;;18.83;41.99
43115;BME280;28727;50.068;14.452;2023-04-30T07:55:33;99748.94;;;18.52;42.52
43115;BME280;28727;50.068;14.452;2023-04-30T07:58:04;99744.19;;;18.67;42.39
43115;BME280;28727;50.068;14.452;2023-04-30T08:00:37;99743.38;;;19.11;42.38
43115;BME280;28727;50.068;14.452;2023-04-30T08:03:08;99749.97;;;20.02;41.10
43115;BME280;28727;50.068;14.452;2023-04-30T08:05:40;99754.06;;;20.05;39.99
43115;BME280;28727;50.068;14.452;2023-04-30T08:08:12;99751.16;;;20.07;40.20
43115;BME280;28727;50.068;14.452;2023-04-30T08:10:44;99757.28;;;19.64;40.67
43115;BME280;28727;50.068;14.452;2023-04-30T08:13:16;99759.97;;;18.81;41.08
43115;BME280;28727;50.068;14.452;2023-04-30T08:15:48;99758.41;;;18.48;41.68
43115;BME280;28727;50.068;14.452;2023-04-30T08:18:20;99761.84;;;18.74;41.14
43115;BME280;28727;50.068;14.452;2023-04-30T08:20:58;99769.69;;;18.69;42.29
43115;BME280;28727;50.068;14.452;2023-04-30T08:23:35;99761.41;;;18.91;41.91
43115;BME280;28727;50.068;14.452;2023-04-30T08:26:06;99753.06;;;18.41;42.58
43115;BME280;28727;50.068;14.452;2023-04-30T08:28:38;99761.38;;;18.00;42.97
43115;BME280;28727;50.068;14.452;2023-04-30T08:31:11;99763.84;;;17.95;43.05
43115;BME280;28727;50.068;14.452;2023-04-30T08:33:43;99762.34;;;17.59;43.41
43115;BME280;28727;50.068;14.452;2023-04-30T08:36:15;99761.66;;;17.18;43.94
43115;BME280;28727;50.068;14.452;2023-04-30T08:38:47;99767.81;;;17.18;44.80
43115;BME280;28727;50.068;14.452;2023-04-30T08:41:24;99763.41;;;17.65;43.73
43115;BME280;28727;50.068;14.452;2023-04-30T08:44:00;99761.53;;;17.59;43.47
43115;BME280;28727;50.068;14.452;2023-04-30T08:46:34;99774.69;;;17.54;43.36
43115;BME280;28727;50.068;14.452;2023-04-30T08:49:09;99766.81;;;17.39;43.90
43115;BME280;28727;50.068;14.452;2023-04-30T08:51:41;99759.91;;;17.91;42.75
43115;BME280;28727;50.068;14.452;2023-04-30T08:54:14;99762.72;;;18.62;41.26
43115;BME280;28727;50.068;14.452;2023-04-30T08:56:47;99763.66;;;18.87;41.31
43115;BME280;28727;50.068;14.452;2023-04-30T08:59:18;99771.63;;;18.36;41.72
43115;BME280;28727;50.068;14.452;2023-04-30T09:01:50;99770.81;;;18.02;42.63
43115;BME280;28727;50.068;14.452;2023-04-30T09:04:24;99770.81;;;18.16;41.59
43115;BME280;28727;50.068;14.452;2023-04-30T09:06:56;99769.13;;;18.61;40.05
43115;BME280;28727;50.068;14.452;2023-04-30T09:09:38;99779.56;;;18.69;39.95
43115;BME280;28727;50.068;14.452;2023-04-30T09:12:14;99773.22;;;18.63;40.21
43115;BME280;28727;50.068;14.452;2023-04-30T09:17:30;99768.91;;;19.45;38.40
43115;BME280;28727;50.068;14.452;2023-04-30T09:20:12;99781.75;;;19.74;38.31
43115;BME280;28727;50.068;14.452;2023-04-30T09:22:44;99782.72;;;19.55;38.14
43115;BME280;28727;50.068;14.452;2023-04-30T09:25:16;99781.63;;;19.62;38.76
43115;BME280;28727;50.068;14.452;2023-04-30T09:27:47;99787.75;;;19.70;37.43
43115;BME280;28727;50.068;14.452;2023-04-30T09:30:30;99783.88;;;19.66;37.34
43115;BME280;28727;50.068;14.452;2023-04-30T09:33:05;99796.84;;;19.69;36.79
43115;BME280;28727;50.068;14.452;2023-04-30T09:35:42;99779.22;;;20.04;35.91
43115;BME280;28727;50.068;14.452;2023-04-30T09:38:29;99781.59;;;20.43;35.14
43115;BME280;28727;50.068;14.452;2023-04-30T09:41:03;99778.81;;;20.50;34.27
43115;BME280;28727;50.068;14.452;2023-04-30T09:43:43;99767.53;;;20.66;35.62
43115;BME280;28727;50.068;14.452;2023-04-30T09:46:18;99764.16;;;20.71;35.24
43115;BME280;28727;50.068;14.452;2023-04-30T09:49:01;99771.16;;;20.90;33.68
43115;BME280;28727;50.068;14.452;2023-04-30T09:51:33;99761.47;;;21.37;33.08
43115;BME280;28727;50.068;14.452;2023-04-30T09:54:06;99762.38;;;21.31;32.96
43115;BME280;28727;50.068;14.452;2023-04-30T09:56:40;99764.22;;;21.19;33.16
43115;BME280;28727;50.068;14.452;2023-04-30T09:59:13;99758.63;;;20.84;33.49
43115;BME280;28727;50.068;14.452;2023-04-30T10:01:45;99756.91;;;20.71;33.74
43115;BME280;28727;50.068;14.452;2023-04-30T10:04:18;99759.47;;;20.66;33.19
43115;BME280;28727;50.068;14.452;2023-04-30T10:06:53;99769.28;;;20.36;33.58
43115;BME280;28727;50.068;14.452;2023-04-30T10:09:42;99758.25;;;20.44;33.41
43115;BME280;28727;50.068;14.452;2023-04-30T10:12:24;99756.97;;;21.01;32.29
43115;BME280;28727;50.068;14.452;2023-04-30T10:15:47;99757.53;;;21.03;32.47
43115;BME280;28727;50.068;14.452;2023-04-30T10:18:05;99754.38;;;20.95;32.78
43115;BME280;28727;50.068;14.452;2023-04-30T10:20:40;99758.78;;;21.37;31.39
43115;BME280;28727;50.068;14.452;2023-04-30T10:23:12;99746.69;;;21.70;30.88
43115;BME280;28727;50.068;14.452;2023-04-30T10:25:44;99755.59;;;21.82;30.58
43115;BME280;28727;50.068;14.452;2023-04-30T10:28:19;99751.00;;;21.59;29.74
43115;BME280;28727;50.068;14.452;2023-04-30T10:30:51;99746.31;;;20.95;31.70
43115;BME280;28727;50.068;14.452;2023-04-30T10:33:56;99741.50;;;20.67;30.11
43115;BME280;28727;50.068;14.452;2023-04-30T10:36:41;99751.00;;;19.77;31.09
43115;BME280;28727;50.068;14.452;2023-04-30T10:39:22;99755.00;;;19.30;31.48
43115;BME280;28727;50.068;14.452;2023-04-30T10:42:02;99747.53;;;19.38;31.78
43115;BME280;28727;50.068;14.452;2023-04-30T10:44:38;99744.00;;;19.76;32.24
43115;BME280;28727;50.068;14.452;2023-04-30T10:47:10;99738.69;;;20.19;32.62
43115;BME280;28727;50.068;14.452;2023-04-30T10:49:48;99734.44;;;20.29;32.67
43115;BME280;28727;50.068;14.452;2023-04-30T10:52:28;99741.41;;;19.62;33.78
43115;BME280;28727;50.068;14.452;2023-04-30T10:55:04;99738.91;;;19.36;33.45
43115;BME280;28727;50.068;14.452;2023-04-30T10:57:41;99743.34;;;19.17;34.29
43115;BME280;28727;50.068;14.452;2023-04-30T11:00:18;99735.47;;;19.60;34.18
43115;BME280;28727;50.068;14.452;2023-04-30T11:02:55;99737.44;;;19.96;33.49
43115;BME280;28727;50.068;14.452;2023-04-30T11:05:35;99734.34;;;20.42;32.87
43115;BME280;28727;50.068;14.452;2023-04-30T11:08:11;99731.41;;;20.44;32.81
43115;BME280;28727;50.068;14.452;2023-04-30T11:10:57;99730.97;;;20.47;31.08
43115;BME280;28727;50.068;14.452;2023-04-30T11:13:44;99732.03;;;20.21;30.06
43115;BME280;28727;50.068;14.452;2023-04-30T11:16:16;99741.94;;;20.02;29.58
43115;BME280;28727;50.068;14.452;2023-04-30T11:18:50;99747.78;;;19.93;28.09
43115;BME280;28727;50.068;14.452;2023-04-30T11:21:23;99735.50;;;20.03;29.33
43115;BME280;28727;50.068;14.452;2023-04-30T11:24:02;99735.16;;;20.18;28.62
43115;BME280;28727;50.068;14.452;2023-04-30T11:27:06;99730.38;;;20.02;30.96
43115;BME280;28727;50.068;14.452;2023-04-30T11:29:39;99719.22;;;20.23;30.96
43115;BME280;28727;50.068;14.452;2023-04-30T11:32:13;99722.63;;;20.12;30.90
43115;BME280;28727;50.068;14.452;2023-04-30T11:34:45;99726.81;;;20.08;31.78
43115;BME280;28727;50.068;14.452;2023-04-30T11:37:20;99720.09;;;20.17;31.91
43115;BME280;28727;50.068;14.452;2023-04-30T11:39:56;99726.81;;;20.08;31.76
43115;BME280;28727;50.068;14.452;2023-04-30T11:42:30;99730.00;;;20.17;31.74
43115;BME280;28727;50.068;14.452;2023-04-30T11:45:13;99727.91;;;20.00;31.31
43115;BME280;28727;50.068;14.452;2023-04-30T11:47:50;99723.72;;;20.04;31.36
43115;BME280;28727;50.068;14.452;2023-04-30T11:50:24;99724.66;;;19.92;30.64
43115;BME280;28727;50.068;14.452;2023-04-30T11:53:00;99719.91;;;19.94;31.17
43115;BME280;28727;50.068;14.452;2023-04-30T11:55:36;99715.09;;;20.21;31.28
43115;BME280;28727;50.068;14.452;2023-04-30T11:58:08;99714.13;;;20.40;31.25
43115;BME280;28727;50.068;14.452;2023-04-30T12:00:41;99711.31;;;20.28;31.88
43115;BME280;28727;50.068;14.452;2023-04-30T12:03:16;99717.00;;;20.20;32.32
43115;BME280;28727;50.068;14.452;2023-04-30T12:05:51;99712.41;;;20.46;32.15
43115;BME280;28727;50.068;14.452;2023-04-30T12:08:23;99710.03;;;20.56;31.81
43115;BME280;28727;50.068;14.452;2023-04-30T12:10:55;99708.88;;;20.63;31.70
43115;BME280;28727;50.068;14.452;2023-04-30T12:13:30;99712.53;;;20.69;30.44
43115;BME280;28727;50.068;14.452;2023-04-30T12:16:02;99711.69;;;20.87;30.42
43115;BME280;28727;50.068;14.452;2023-04-30T12:18:34;99711.78;;;20.62;30.52
43115;BME280;28727;50.068;14.452;2023-04-30T12:21:06;99705.34;;;20.26;31.00
43115;BME280;28727;50.068;14.452;2023-04-30T12:23:37;99709.69;;;20.27;30.95
43115;BME280;28727;50.068;14.452;2023-04-30T12:26:10;99717.44;;;19.92;30.72
43115;BME280;28727;50.068;14.452;2023-04-30T12:28:41;99710.63;;;19.96;31.14
43115;BME280;28727;50.068;14.452;2023-04-30T12:31:13;99701.19;;;20.30;30.98
43115;BME280;28727;50.068;14.452;2023-04-30T12:33:54;99701.69;;;20.21;31.34
43115;BME280;28727;50.068;14.452;2023-04-30T12:36:31;99699.66;;;20.41;31.08
43115;BME280;28727;50.068;14.452;2023-04-30T12:39:13;99693.47;;;20.59;31.25
43115;BME280;28727;50.068;14.452;2023-04-30T12:41:48;99691.06;;;20.69;31.12
43115;BME280;28727;50.068;14.452;2023-04-30T12:44:24;99694.16;;;20.54;30.04
43115;BME280;28727;50.068;14.452;2023-04-30T12:46:57;99702.50;;;20.21;29.88
43115;BME280;28727;50.068;14.452;2023-04-30T12:49:33;99703.16;;;19.98;30.35
43115;BME280;28727;50.068;14.452;2023-04-30T12:52:08;99692.38;;;20.05;29.44
43115;BME280;28727;50.068;14.452;2023-04-30T12:54:42;99706.44;;;20.00;30.11
43115;BME280;28727;50.068;14.452;2023-04-30T12:57:13;99691.66;;;19.73;29.84
43115;BME280;28727;50.068;14.452;2023-04-30T13:02:25;99687.09;;;19.49;30.72
43115;BME280;28727;50.068;14.452;2023-04-30T13:04:58;99679.72;;;19.69;30.92
43115;BME280;28727;50.068;14.452;2023-04-30T13:07:36;99679.66;;;19.76;30.31
43115;BME280;28727;50.068;14.452;2023-04-30T13:10:12;99680.41;;;19.83;30.31
43115;BME280;28727;50.068;14.452;2023-04-30T13:12:44;99670.81;;;19.93;30.78
43115;BME280;28727;50.068;14.452;2023-04-30T13:15:16;99666.13;;;19.89;29.99
43115;BME280;28727;50.068;14.452;2023-04-30T13:17:51;99672.38;;;19.83;30.12
43115;BME280;28727;50.068;14.452;2023-04-30T13:20:25;99665.38;;;19.57;29.75
43115;BME280;28727;50.068;14.452;2023-04-30T13:22:56;99669.53;;;19.53;30.05
43115;BME280;28727;50.068;14.452;2023-04-30T13:25:29;99664.25;;;19.46;30.32
43115;BME280;28727;50.068;14.452;2023-04-30T13:28:01;99658.78;;;19.28;30.23
43115;BME280;28727;50.068;14.452;2023-04-30T13:30:33;99659.06;;;19.20;29.89
43115;BME280;28727;50.068;14.452;2023-04-30T13:33:05;99647.72;;;19.18;30.48
43115;BME280;28727;50.068;14.452;2023-04-30T13:35:38;99648.00;;;19.10;30.67
43115;BME280;28727;50.068;14.452;2023-04-30T13:38:10;99648.06;;;18.97;31.16
43115;BME280;28727;50.068;14.452;2023-04-30T13:40:42;99643.50;;;19.04;31.59
43115;BME280;28727;50.068;14.452;2023-04-30T13:43:14;99644.50;;;18.78;32.07
43115;BME280;28727;50.068;14.452;2023-04-30T13:45:46;99646.91;;;18.86;32.07
43115;BME280;28727;50.068;14.452;2023-04-30T13:48:18;99651.53;;;18.72;32.01
43115;BME280;28727;50.068;14.452;2023-04-30T13:50:52;99645.41;;;18.52;32.25